sensor_id;sensor_type;location;lat;lon;timestamp;temperature;humidity
16347;DHT22;8283;48.504;13.734;2023-03-16T00:02:11;6.90;59.60
16347;DHT22;8283;48.504;13.734;2023-03-16T00:04:56;6.90;59.30
16347;DHT22;8283;48.504;13.734;2023-03-16T00:07:41;6.90;59.00
16347;DHT22;8283;48.504;13.734;2023-03-16T00:10:25;6.90;59.10
16347;DHT22;8283;48.504;13.734;2023-03-16T00:13:10;6.90;59.00
16347;DHT22;8283;48.504;13.734;2023-03-16T00:15:58;7.00;59.00
16347;DHT22;8283;48.504;13.734;2023-03-16T00:18:43;7.00;59.20
16347;DHT22;8283;48.504;13.734;2023-03-16T00:21:28;7.00;59.10
16347;DHT22;8283;48.504;13.734;2023-03-16T00:24:14;7.00;59.00
16347;DHT22;8283;48.504;13.734;2023-03-16T00:27:01;7.00;59.00
16347;DHT22;8283;48.504;13.734;2023-03-16T00:29:47;7.10;59.00
16347;DHT22;8283;48.504;13.734;2023-03-16T00:32:35;7.10;59.20
16347;DHT22;8283;48.504;13.734;2023-03-16T00:35:19;7.10;59.20
16347;DHT22;8283;48.504;13.734;2023-03-16T00:38:04;7.10;59.10
16347;DHT22;8283;48.504;13.734;2023-03-16T00:40:49;7.10;59.10
16347;DHT22;8283;48.504;13.734;2023-03-16T00:43:35;7.20;59.10
16347;DHT22;8283;48.504;13.734;2023-03-16T00:46:24;7.20;59.10
16347;DHT22;8283;48.504;13.734;2023-03-16T00:49:10;7.20;59.00
16347;DHT22;8283;48.504;13.734;2023-03-16T00:51:56;7.20;59.00
16347;DHT22;8283;48.504;13.734;2023-03-16T00:54:45;7.20;59.10
16347;DHT22;8283;48.504;13.734;2023-03-16T00:57:30;7.20;59.30
16347;DHT22;8283;48.504;13.734;2023-03-16T01:00:15;7.20;59.10
16347;DHT22;8283;48.504;13.734;2023-03-16T01:03:01;7.20;59.50
16347;DHT22;8283;48.504;13.734;2023-03-16T01:05:46;7.20;59.90
16347;DHT22;8283;48.504;13.734;2023-03-16T01:08:31;7.20;59.40
16347;DHT22;8283;48.504;13.734;2023-03-16T01:11:19;7.10;59.10
16347;DHT22;8283;48.504;13.734;2023-03-16T01:14:05;7.10;59.20
16347;DHT22;8283;48.504;13.734;2023-03-16T01:16:51;7.10;59.40
16347;DHT22;8283;48.504;13.734;2023-03-16T01:19:37;7.10;59.30
16347;DHT22;8283;48.504;13.734;2023-03-16T01:22:21;7.10;59.30
16347;DHT22;8283;48.504;13.734;2023-03-16T01:25:06;7.00;59.30
16347;DHT22;8283;48.504;13.734;2023-03-16T01:27:51;7.00;59.80
16347;DHT22;8283;48.504;13.734;2023-03-16T01:30:36;7.00;59.90
16347;DHT22;8283;48.504;13.734;2023-03-16T01:33:24;6.90;60.80
16347;DHT22;8283;48.504;13.734;2023-03-16T01:36:15;6.90;60.30
16347;DHT22;8283;48.504;13.734;2023-03-16T01:39:20;6.80;60.10
16347;DHT22;8283;48.504;13.734;2023-03-16T01:42:06;6.80;59.80
16347;DHT22;8283;48.504;13.734;2023-03-16T01:44:56;6.80;59.60
16347;DHT22;8283;48.504;13.734;2023-03-16T01:47:45;6.80;59.60
16347;DHT22;8283;48.504;13.734;2023-03-16T01:50:32;6.80;59.40
16347;DHT22;8283;48.504;13.734;2023-03-16T01:53:16;6.80;59.20
16347;DHT22;8283;48.504;13.734;2023-03-16T01:56:04;6.80;59.20
16347;DHT22;8283;48.504;13.734;2023-03-16T01:58:52;6.80;59.30
16347;DHT22;8283;48.504;13.734;2023-03-16T02:01:42;6.80;59.30
16347;DHT22;8283;48.504;13.734;2023-03-16T02:04:51;6.80;59.20
16347;DHT22;8283;48.504;13.734;2023-03-16T02:07:47;6.80;60.20
16347;DHT22;8283;48.504;13.734;2023-03-16T02:10:33;6.80;59.20
16347;DHT22;8283;48.504;13.734;2023-03-16T02:13:21;6.80;59.20
16347;DHT22;8283;48.504;13.734;2023-03-16T02:16:07;6.70;59.50
16347;DHT22;8283;48.504;13.734;2023-03-16T02:18:52;6.70;59.50
16347;DHT22;8283;48.504;13.734;2023-03-16T02:22:04;6.80;59.40
16347;DHT22;8283;48.504;13.734;2023-03-16T02:24:51;6.80;60.70
16347;DHT22;8283;48.504;13.734;2023-03-16T02:27:45;6.70;59.50
16347;DHT22;8283;48.504;13.734;2023-03-16T02:30:33;6.80;59.90
16347;DHT22;8283;48.504;13.734;2023-03-16T02:33:20;6.80;59.60
16347;DHT22;8283;48.504;13.734;2023-03-16T02:36:04;6.80;59.70
16347;DHT22;8283;48.504;13.734;2023-03-16T02:38:49;6.80;59.60
16347;DHT22;8283;48.504;13.734;2023-03-16T02:41:35;6.80;59.50
16347;DHT22;8283;48.504;13.734;2023-03-16T02:44:25;6.80;59.60
16347;DHT22;8283;48.504;13.734;2023-03-16T02:50:09;6.90;60.10
16347;DHT22;8283;48.504;13.734;2023-03-16T02:52:54;6.90;59.60
16347;DHT22;8283;48.504;13.734;2023-03-16T02:55:38;6.90;59.80
16347;DHT22;8283;48.504;13.734;2023-03-16T02:58:23;6.90;60.80
16347;DHT22;8283;48.504;13.734;2023-03-16T03:01:08;6.80;59.70
16347;DHT22;8283;48.504;13.734;2023-03-16T03:03:53;6.80;59.70
16347;DHT22;8283;48.504;13.734;2023-03-16T03:06:38;6.90;59.70
16347;DHT22;8283;48.504;13.734;2023-03-16T03:09:23;6.80;59.70
16347;DHT22;8283;48.504;13.734;2023-03-16T03:12:11;6.90;59.80
16347;DHT22;8283;48.504;13.734;2023-03-16T03:14:56;6.90;59.80
16347;DHT22;8283;48.504;13.734;2023-03-16T03:17:41;6.90;59.70
16347;DHT22;8283;48.504;13.734;2023-03-16T03:20:26;6.90;59.70
16347;DHT22;8283;48.504;13.734;2023-03-16T03:23:11;6.90;59.60
16347;DHT22;8283;48.504;13.734;2023-03-16T03:25:58;6.90;59.70
16347;DHT22;8283;48.504;13.734;2023-03-16T03:28:43;6.90;59.80
16347;DHT22;8283;48.504;13.734;2023-03-16T03:31:30;6.90;59.70
16347;DHT22;8283;48.504;13.734;2023-03-16T03:34:15;6.90;59.60
16347;DHT22;8283;48.504;13.734;2023-03-16T03:37:00;7.00;59.60
16347;DHT22;8283;48.504;13.734;2023-03-16T03:39:45;6.90;59.50
16347;DHT22;8283;48.504;13.734;2023-03-16T03:42:32;6.90;59.40
16347;DHT22;8283;48.504;13.734;2023-03-16T03:45:16;6.90;59.40
16347;DHT22;8283;48.504;13.734;2023-03-16T03:48:01;6.90;59.30
16347;DHT22;8283;48.504;13.734;2023-03-16T03:50:46;6.90;59.30
16347;DHT22;8283;48.504;13.734;2023-03-16T03:53:48;6.90;59.30
16347;DHT22;8283;48.504;13.734;2023-03-16T03:56:51;6.90;59.40
16347;DHT22;8283;48.504;13.734;2023-03-16T03:59:36;6.00;58.80
16347;DHT22;8283;48.504;13.734;2023-03-16T04:02:31;6.80;59.10
16347;DHT22;8283;48.504;13.734;2023-03-16T04:05:16;6.80;59.00
16347;DHT22;8283;48.504;13.734;2023-03-16T04:08:00;6.80;59.00
16347;DHT22;8283;48.504;13.734;2023-03-16T04:10:46;6.80;59.00
16347;DHT22;8283;48.504;13.734;2023-03-16T04:13:30;6.70;58.80
16347;DHT22;8283;48.504;13.734;2023-03-16T04:16:15;6.70;58.70
16347;DHT22;8283;48.504;13.734;2023-03-16T04:19:01;6.70;58.70
16347;DHT22;8283;48.504;13.734;2023-03-16T04:21:45;6.60;58.60
16347;DHT22;8283;48.504;13.734;2023-03-16T04:24:30;6.60;58.60
16347;DHT22;8283;48.504;13.734;2023-03-16T04:27:17;6.60;58.70
16347;DHT22;8283;48.504;13.734;2023-03-16T04:30:12;6.50;58.60
16347;DHT22;8283;48.504;13.734;2023-03-16T04:33:01;6.50;59.00
16347;DHT22;8283;48.504;13.734;2023-03-16T04:35:50;6.40;58.60
16347;DHT22;8283;48.504;13.734;2023-03-16T04:38:37;6.40;58.90
16347;DHT22;8283;48.504;13.734;2023-03-16T04:41:21;6.30;58.60
16347;DHT22;8283;48.504;13.734;2023-03-16T04:44:15;6.30;58.70
16347;DHT22;8283;48.504;13.734;2023-03-16T04:47:04;6.30;58.80
16347;DHT22;8283;48.504;13.734;2023-03-16T04:49:54;6.30;58.90
16347;DHT22;8283;48.504;13.734;2023-03-16T04:52:39;6.20;58.70
16347;DHT22;8283;48.504;13.734;2023-03-16T04:55:24;6.20;58.80
16347;DHT22;8283;48.504;13.734;2023-03-16T04:58:10;6.20;58.90
16347;DHT22;8283;48.504;13.734;2023-03-16T05:00:57;6.10;58.90
16347;DHT22;8283;48.504;13.734;2023-03-16T05:03:47;6.10;59.00
16347;DHT22;8283;48.504;13.734;2023-03-16T05:06:32;6.10;58.90
16347;DHT22;8283;48.504;13.734;2023-03-16T05:09:19;6.10;59.00
16347;DHT22;8283;48.504;13.734;2023-03-16T05:12:04;6.10;59.00
16347;DHT22;8283;48.504;13.734;2023-03-16T05:14:49;6.10;58.90
16347;DHT22;8283;48.504;13.734;2023-03-16T05:17:42;6.10;59.00
16347;DHT22;8283;48.504;13.734;2023-03-16T05:20:28;6.00;58.90
16347;DHT22;8283;48.504;13.734;2023-03-16T05:23:16;6.00;58.90
16347;DHT22;8283;48.504;13.734;2023-03-16T05:26:04;6.00;58.90
16347;DHT22;8283;48.504;13.734;2023-03-16T05:28:51;6.00;58.90
16347;DHT22;8283;48.504;13.734;2023-03-16T05:31:37;6.00;59.00
16347;DHT22;8283;48.504;13.734;2023-03-16T05:34:27;5.90;58.90
16347;DHT22;8283;48.504;13.734;2023-03-16T05:37:12;5.90;58.90
16347;DHT22;8283;48.504;13.734;2023-03-16T05:39:56;5.90;58.80
16347;DHT22;8283;48.504;13.734;2023-03-16T05:42:47;5.90;58.90
16347;DHT22;8283;48.504;13.734;2023-03-16T05:45:32;5.90;59.10
16347;DHT22;8283;48.504;13.734;2023-03-16T05:48:29;5.90;59.10
16347;DHT22;8283;48.504;13.734;2023-03-16T05:51:16;5.90;59.10
16347;DHT22;8283;48.504;13.734;2023-03-16T05:54:01;5.90;59.20
16347;DHT22;8283;48.504;13.734;2023-03-16T05:56:51;5.90;59.30
16347;DHT22;8283;48.504;13.734;2023-03-16T05:59:36;5.90;59.30
16347;DHT22;8283;48.504;13.734;2023-03-16T06:02:21;5.90;59.40
16347;DHT22;8283;48.504;13.734;2023-03-16T06:05:06;5.90;59.30
16347;DHT22;8283;48.504;13.734;2023-03-16T06:07:53;5.90;59.30
16347;DHT22;8283;48.504;13.734;2023-03-16T06:10:38;5.90;59.30
16347;DHT22;8283;48.504;13.734;2023-03-16T06:13:22;5.90;59.50
16347;DHT22;8283;48.504;13.734;2023-03-16T06:16:07;5.90;59.50
16347;DHT22;8283;48.504;13.734;2023-03-16T06:18:53;6.00;59.50
16347;DHT22;8283;48.504;13.734;2023-03-16T06:21:39;6.00;59.60
16347;DHT22;8283;48.504;13.734;2023-03-16T06:24:27;6.00;59.70
16347;DHT22;8283;48.504;13.734;2023-03-16T06:27:11;6.10;59.80
16347;DHT22;8283;48.504;13.734;2023-03-16T06:30:12;6.10;59.70
16347;DHT22;8283;48.504;13.734;2023-03-16T06:32:56;6.20;59.70
16347;DHT22;8283;48.504;13.734;2023-03-16T06:35:43;6.20;59.60
16347;DHT22;8283;48.504;13.734;2023-03-16T06:38:35;6.20;60.20
16347;DHT22;8283;48.504;13.734;2023-03-16T06:41:35;6.30;59.80
16347;DHT22;8283;48.504;13.734;2023-03-16T06:44:21;6.30;60.50
16347;DHT22;8283;48.504;13.734;2023-03-16T06:47:16;6.40;59.90
16347;DHT22;8283;48.504;13.734;2023-03-16T06:50:02;6.50;60.00
16347;DHT22;8283;48.504;13.734;2023-03-16T06:52:48;6.60;60.10
16347;DHT22;8283;48.504;13.734;2023-03-16T06:55:32;6.60;60.10
16347;DHT22;8283;48.504;13.734;2023-03-16T06:58:18;6.70;60.10
16347;DHT22;8283;48.504;13.734;2023-03-16T07:01:03;6.80;60.10
16347;DHT22;8283;48.504;13.734;2023-03-16T07:03:48;6.90;60.10
16347;DHT22;8283;48.504;13.734;2023-03-16T07:06:37;7.00;60.20
16347;DHT22;8283;48.504;13.734;2023-03-16T07:09:22;7.10;60.10
16347;DHT22;8283;48.504;13.734;2023-03-16T07:12:06;7.20;60.00
16347;DHT22;8283;48.504;13.734;2023-03-16T07:14:51;7.30;59.70
16347;DHT22;8283;48.504;13.734;2023-03-16T07:17:39;7.30;59.50
16347;DHT22;8283;48.504;13.734;2023-03-16T07:20:24;7.30;59.50
16347;DHT22;8283;48.504;13.734;2023-03-16T07:23:11;7.30;59.30
16347;DHT22;8283;48.504;13.734;2023-03-16T07:25:57;7.30;59.20
16347;DHT22;8283;48.504;13.734;2023-03-16T07:28:42;7.30;59.30
16347;DHT22;8283;48.504;13.734;2023-03-16T07:31:27;7.30;59.50
16347;DHT22;8283;48.504;13.734;2023-03-16T07:34:14;7.40;59.90
16347;DHT22;8283;48.504;13.734;2023-03-16T07:37:03;7.40;60.20
16347;DHT22;8283;48.504;13.734;2023-03-16T07:39:50;7.60;60.60
16347;DHT22;8283;48.504;13.734;2023-03-16T07:42:36;7.70;60.80
16347;DHT22;8283;48.504;13.734;2023-03-16T07:45:41;7.90;60.90
16347;DHT22;8283;48.504;13.734;2023-03-16T07:48:26;8.10;61.10
16347;DHT22;8283;48.504;13.734;2023-03-16T07:51:14;8.30;61.20
16347;DHT22;8283;48.504;13.734;2023-03-16T07:54:03;8.50;61.40
16347;DHT22;8283;48.504;13.734;2023-03-16T07:56:50;8.70;61.50
16347;DHT22;8283;48.504;13.734;2023-03-16T07:59:52;9.00;61.60
16347;DHT22;8283;48.504;13.734;2023-03-16T08:02:37;9.20;61.50
16347;DHT22;8283;48.504;13.734;2023-03-16T08:05:23;9.50;61.60
16347;DHT22;8283;48.504;13.734;2023-03-16T08:08:14;9.70;61.30
16347;DHT22;8283;48.504;13.734;2023-03-16T08:10:59;9.90;61.20
16347;DHT22;8283;48.504;13.734;2023-03-16T08:13:54;10.10;61.10
16347;DHT22;8283;48.504;13.734;2023-03-16T08:16:41;10.30;61.20
16347;DHT22;8283;48.504;13.734;2023-03-16T08:19:27;10.50;61.30
16347;DHT22;8283;48.504;13.734;2023-03-16T08:22:15;10.70;61.60
16347;DHT22;8283;48.504;13.734;2023-03-16T08:25:05;11.00;61.80
16347;DHT22;8283;48.504;13.734;2023-03-16T08:27:51;11.20;61.60
16347;DHT22;8283;48.504;13.734;2023-03-16T08:30:36;11.40;61.50
16347;DHT22;8283;48.504;13.734;2023-03-16T08:33:37;11.60;61.40
16347;DHT22;8283;48.504;13.734;2023-03-16T08:36:23;11.90;61.40
16347;DHT22;8283;48.504;13.734;2023-03-16T08:39:10;12.10;61.50
16347;DHT22;8283;48.504;13.734;2023-03-16T08:42:00;12.30;61.40
16347;DHT22;8283;48.504;13.734;2023-03-16T08:44:53;12.50;61.20
16347;DHT22;8283;48.504;13.734;2023-03-16T08:47:38;12.70;61.40
16347;DHT22;8283;48.504;13.734;2023-03-16T08:50:27;12.90;61.50
16347;DHT22;8283;48.504;13.734;2023-03-16T08:53:12;13.20;61.30
16347;DHT22;8283;48.504;13.734;2023-03-16T08:56:03;13.40;60.90
16347;DHT22;8283;48.504;13.734;2023-03-16T08:58:49;13.60;60.40
16347;DHT22;8283;48.504;13.734;2023-03-16T09:01:34;13.80;60.90
16347;DHT22;8283;48.504;13.734;2023-03-16T09:04:18;14.00;60.90
16347;DHT22;8283;48.504;13.734;2023-03-16T09:07:05;14.20;60.80
16347;DHT22;8283;48.504;13.734;2023-03-16T09:09:49;14.40;60.30
16347;DHT22;8283;48.504;13.734;2023-03-16T09:12:35;14.60;60.10
16347;DHT22;8283;48.504;13.734;2023-03-16T09:15:20;14.80;59.80
16347;DHT22;8283;48.504;13.734;2023-03-16T09:18:05;14.90;59.60
16347;DHT22;8283;48.504;13.734;2023-03-16T09:20:49;15.10;59.50
16347;DHT22;8283;48.504;13.734;2023-03-16T09:23:34;15.20;59.90
16347;DHT22;8283;48.504;13.734;2023-03-16T09:26:21;15.40;59.20
16347;DHT22;8283;48.504;13.734;2023-03-16T09:29:05;15.50;59.00
16347;DHT22;8283;48.504;13.734;2023-03-16T09:31:50;15.60;58.80
16347;DHT22;8283;48.504;13.734;2023-03-16T09:34:34;15.80;58.70
16347;DHT22;8283;48.504;13.734;2023-03-16T09:37:19;15.90;58.40
16347;DHT22;8283;48.504;13.734;2023-03-16T09:40:05;16.00;58.20
16347;DHT22;8283;48.504;13.734;2023-03-16T09:46:31;16.30;56.90
16347;DHT22;8283;48.504;13.734;2023-03-16T09:49:18;16.50;56.50
16347;DHT22;8283;48.504;13.734;2023-03-16T09:55:09;16.90;57.50
16347;DHT22;8283;48.504;13.734;2023-03-16T09:57:56;17.10;56.90
16347;DHT22;8283;48.504;13.734;2023-03-16T10:06:18;17.70;57.30
16347;DHT22;8283;48.504;13.734;2023-03-16T10:12:14;18.00;55.50
16347;DHT22;8283;48.504;13.734;2023-03-16T10:15:12;18.10;57.00
16347;DHT22;8283;48.504;13.734;2023-03-16T10:20:45;18.40;56.00
16347;DHT22;8283;48.504;13.734;2023-03-16T10:23:32;18.60;56.60
16347;DHT22;8283;48.504;13.734;2023-03-16T10:26:22;18.70;56.20
16347;DHT22;8283;48.504;13.734;2023-03-16T10:29:11;18.80;55.30
16347;DHT22;8283;48.504;13.734;2023-03-16T10:32:16;19.10;55.10
16347;DHT22;8283;48.504;13.734;2023-03-16T10:35:10;19.20;54.00
16347;DHT22;8283;48.504;13.734;2023-03-16T10:37:57;19.30;54.40
16347;DHT22;8283;48.504;13.734;2023-03-16T10:40:41;19.40;55.00
16347;DHT22;8283;48.504;13.734;2023-03-16T10:43:28;19.40;54.90
16347;DHT22;8283;48.504;13.734;2023-03-16T10:46:12;19.50;54.60
16347;DHT22;8283;48.504;13.734;2023-03-16T10:49:00;19.60;54.40
16347;DHT22;8283;48.504;13.734;2023-03-16T10:51:44;19.70;53.40
16347;DHT22;8283;48.504;13.734;2023-03-16T10:54:35;19.80;53.80
16347;DHT22;8283;48.504;13.734;2023-03-16T10:57:32;19.90;53.20
16347;DHT22;8283;48.504;13.734;2023-03-16T11:00:40;20.00;52.10
16347;DHT22;8283;48.504;13.734;2023-03-16T11:03:26;20.10;51.20
16347;DHT22;8283;48.504;13.734;2023-03-16T11:06:23;20.20;53.40
16347;DHT22;8283;48.504;13.734;2023-03-16T11:09:17;20.20;51.50
16347;DHT22;8283;48.504;13.734;2023-03-16T11:12:23;20.30;51.50
16347;DHT22;8283;48.504;13.734;2023-03-16T11:15:12;20.40;50.20
16347;DHT22;8283;48.504;13.734;2023-03-16T11:17:57;20.50;50.80
16347;DHT22;8283;48.504;13.734;2023-03-16T11:20:41;20.40;51.60
16347;DHT22;8283;48.504;13.734;2023-03-16T11:23:32;20.50;51.60
16347;DHT22;8283;48.504;13.734;2023-03-16T11:26:26;20.50;50.10
16347;DHT22;8283;48.504;13.734;2023-03-16T11:29:20;20.60;50.20
16347;DHT22;8283;48.504;13.734;2023-03-16T11:32:15;20.70;49.80
16347;DHT22;8283;48.504;13.734;2023-03-16T11:35:02;20.70;49.70
16347;DHT22;8283;48.504;13.734;2023-03-16T11:41:04;20.80;48.80
16347;DHT22;8283;48.504;13.734;2023-03-16T11:43:55;20.90;50.00
16347;DHT22;8283;48.504;13.734;2023-03-16T11:49:30;21.00;50.40
16347;DHT22;8283;48.504;13.734;2023-03-16T11:52:29;21.10;50.20
16347;DHT22;8283;48.504;13.734;2023-03-16T12:01:53;21.30;49.70
16347;DHT22;8283;48.504;13.734;2023-03-16T12:11:09;21.40;47.50
16347;DHT22;8283;48.504;13.734;2023-03-16T12:22:28;21.50;47.80
16347;DHT22;8283;48.504;13.734;2023-03-16T12:25:20;21.60;46.60
16347;DHT22;8283;48.504;13.734;2023-03-16T12:28:23;21.60;47.20
16347;DHT22;8283;48.504;13.734;2023-03-16T12:49:26;22.10;47.60
16347;DHT22;8283;48.504;13.734;2023-03-16T12:52:14;22.30;47.10
16347;DHT22;8283;48.504;13.734;2023-03-16T12:58:04;22.60;45.40
16347;DHT22;8283;48.504;13.734;2023-03-16T13:00:58;22.80;46.50
16347;DHT22;8283;48.504;13.734;2023-03-16T13:03:46;22.90;44.60
16347;DHT22;8283;48.504;13.734;2023-03-16T13:06:33;23.00;45.70
16347;DHT22;8283;48.504;13.734;2023-03-16T13:09:23;23.00;45.80
16347;DHT22;8283;48.504;13.734;2023-03-16T13:12:08;23.10;45.10
16347;DHT22;8283;48.504;13.734;2023-03-16T13:14:53;23.20;45.90
16347;DHT22;8283;48.504;13.734;2023-03-16T13:17:38;23.40;45.80
16347;DHT22;8283;48.504;13.734;2023-03-16T13:20:25;23.60;45.40
16347;DHT22;8283;48.504;13.734;2023-03-16T13:26:17;23.60;43.30
16347;DHT22;8283;48.504;13.734;2023-03-16T13:29:27;23.60;43.70
16347;DHT22;8283;48.504;13.734;2023-03-16T13:32:16;23.60;42.20
16347;DHT22;8283;48.504;13.734;2023-03-16T13:35:10;23.50;42.80
16347;DHT22;8283;48.504;13.734;2023-03-16T13:38:05;23.40;42.70
16347;DHT22;8283;48.504;13.734;2023-03-16T13:40:52;23.40;42.50
16347;DHT22;8283;48.504;13.734;2023-03-16T13:43:41;23.30;43.20
16347;DHT22;8283;48.504;13.734;2023-03-16T13:46:29;23.20;43.20
16347;DHT22;8283;48.504;13.734;2023-03-16T13:49:14;23.10;42.20
16347;DHT22;8283;48.504;13.734;2023-03-16T13:52:01;23.10;43.00
16347;DHT22;8283;48.504;13.734;2023-03-16T13:54:45;23.00;42.70
16347;DHT22;8283;48.504;13.734;2023-03-16T13:57:35;23.00;42.30
16347;DHT22;8283;48.504;13.734;2023-03-16T14:00:22;22.80;41.30
16347;DHT22;8283;48.504;13.734;2023-03-16T14:03:14;22.40;41.40
16347;DHT22;8283;48.504;13.734;2023-03-16T14:05:59;22.10;41.20
16347;DHT22;8283;48.504;13.734;2023-03-16T14:08:48;22.00;42.20
16347;DHT22;8283;48.504;13.734;2023-03-16T14:11:34;21.90;41.90
16347;DHT22;8283;48.504;13.734;2023-03-16T14:14:36;21.80;42.50
16347;DHT22;8283;48.504;13.734;2023-03-16T14:17:22;21.90;41.00
16347;DHT22;8283;48.504;13.734;2023-03-16T14:20:22;21.70;41.80
16347;DHT22;8283;48.504;13.734;2023-03-16T14:23:20;21.50;40.90
16347;DHT22;8283;48.504;13.734;2023-03-16T14:26:13;21.50;40.70
16347;DHT22;8283;48.504;13.734;2023-03-16T14:29:17;21.20;41.30
16347;DHT22;8283;48.504;13.734;2023-03-16T14:32:22;21.20;41.00
16347;DHT22;8283;48.504;13.734;2023-03-16T14:35:15;21.10;40.70
16347;DHT22;8283;48.504;13.734;2023-03-16T14:38:28;21.10;41.50
16347;DHT22;8283;48.504;13.734;2023-03-16T14:41:17;21.00;40.60
16347;DHT22;8283;48.504;13.734;2023-03-16T14:44:04;21.00;41.40
16347;DHT22;8283;48.504;13.734;2023-03-16T14:46:49;20.90;41.90
16347;DHT22;8283;48.504;13.734;2023-03-16T14:49:37;20.80;41.60
16347;DHT22;8283;48.504;13.734;2023-03-16T14:52:26;20.80;41.00
16347;DHT22;8283;48.504;13.734;2023-03-16T14:55:17;20.70;41.50
16347;DHT22;8283;48.504;13.734;2023-03-16T14:58:03;20.50;41.20
16347;DHT22;8283;48.504;13.734;2023-03-16T15:00:47;20.40;41.40
16347;DHT22;8283;48.504;13.734;2023-03-16T15:03:36;20.40;41.30
16347;DHT22;8283;48.504;13.734;2023-03-16T15:06:21;20.20;41.10
16347;DHT22;8283;48.504;13.734;2023-03-16T15:09:06;20.10;41.00
16347;DHT22;8283;48.504;13.734;2023-03-16T15:11:56;20.40;41.20
16347;DHT22;8283;48.504;13.734;2023-03-16T15:14:41;19.70;41.00
16347;DHT22;8283;48.504;13.734;2023-03-16T15:17:45;19.50;40.70
16347;DHT22;8283;48.504;13.734;2023-03-16T15:20:33;19.30;40.40
16347;DHT22;8283;48.504;13.734;2023-03-16T15:23:19;19.20;40.00
16347;DHT22;8283;48.504;13.734;2023-03-16T15:26:04;18.80;40.10
16347;DHT22;8283;48.504;13.734;2023-03-16T15:28:50;18.50;39.90
16347;DHT22;8283;48.504;13.734;2023-03-16T15:31:35;18.20;39.90
16347;DHT22;8283;48.504;13.734;2023-03-16T15:34:19;17.80;39.80
16347;DHT22;8283;48.504;13.734;2023-03-16T15:37:04;17.60;39.90
16347;DHT22;8283;48.504;13.734;2023-03-16T15:39:50;17.30;40.10
16347;DHT22;8283;48.504;13.734;2023-03-16T15:42:34;17.00;40.20
16347;DHT22;8283;48.504;13.734;2023-03-16T15:45:21;16.80;40.20
16347;DHT22;8283;48.504;13.734;2023-03-16T15:48:06;16.60;40.20
16347;DHT22;8283;48.504;13.734;2023-03-16T15:51:03;16.40;40.40
16347;DHT22;8283;48.504;13.734;2023-03-16T15:54:00;16.20;40.10
16347;DHT22;8283;48.504;13.734;2023-03-16T15:56:46;16.10;40.40
16347;DHT22;8283;48.504;13.734;2023-03-16T15:59:33;15.90;40.60
16347;DHT22;8283;48.504;13.734;2023-03-16T16:02:26;15.80;40.60
16347;DHT22;8283;48.504;13.734;2023-03-16T16:05:11;15.70;40.60
16347;DHT22;8283;48.504;13.734;2023-03-16T16:07:56;15.60;40.90
16347;DHT22;8283;48.504;13.734;2023-03-16T16:10:41;15.50;41.00
16347;DHT22;8283;48.504;13.734;2023-03-16T16:13:27;15.40;40.90
16347;DHT22;8283;48.504;13.734;2023-03-16T16:16:14;15.30;41.00
16347;DHT22;8283;48.504;13.734;2023-03-16T16:18:59;15.20;41.20
16347;DHT22;8283;48.504;13.734;2023-03-16T16:21:44;15.10;41.30
16347;DHT22;8283;48.504;13.734;2023-03-16T16:24:30;15.00;41.40
16347;DHT22;8283;48.504;13.734;2023-03-16T16:27:16;15.00;41.50
16347;DHT22;8283;48.504;13.734;2023-03-16T16:30:01;14.90;41.50
16347;DHT22;8283;48.504;13.734;2023-03-16T16:32:46;14.80;41.70
16347;DHT22;8283;48.504;13.734;2023-03-16T16:35:30;14.70;41.60
16347;DHT22;8283;48.504;13.734;2023-03-16T16:38:14;14.70;41.80
16347;DHT22;8283;48.504;13.734;2023-03-16T16:41:01;14.60;41.90
16347;DHT22;8283;48.504;13.734;2023-03-16T16:43:46;15.00;42.20
16347;DHT22;8283;48.504;13.734;2023-03-16T16:46:39;14.70;42.10
16347;DHT22;8283;48.504;13.734;2023-03-16T16:49:26;14.30;42.10
16347;DHT22;8283;48.504;13.734;2023-03-16T16:52:18;14.30;42.10
16347;DHT22;8283;48.504;13.734;2023-03-16T16:55:03;14.20;42.10
16347;DHT22;8283;48.504;13.734;2023-03-16T16:57:55;14.10;42.20
16347;DHT22;8283;48.504;13.734;2023-03-16T17:00:39;13.90;42.40
16347;DHT22;8283;48.504;13.734;2023-03-16T17:03:27;13.80;42.50
16347;DHT22;8283;48.504;13.734;2023-03-16T17:06:16;13.70;42.50
16347;DHT22;8283;48.504;13.734;2023-03-16T17:09:01;13.60;42.70
16347;DHT22;8283;48.504;13.734;2023-03-16T17:11:45;13.50;42.70
16347;DHT22;8283;48.504;13.734;2023-03-16T17:14:29;13.40;42.70
16347;DHT22;8283;48.504;13.734;2023-03-16T17:17:17;13.30;42.80
16347;DHT22;8283;48.504;13.734;2023-03-16T17:20:02;13.20;42.90
16347;DHT22;8283;48.504;13.734;2023-03-16T17:22:48;13.10;43.00
16347;DHT22;8283;48.504;13.734;2023-03-16T17:25:34;13.00;43.70
16347;DHT22;8283;48.504;13.734;2023-03-16T17:28:19;12.90;43.20
16347;DHT22;8283;48.504;13.734;2023-03-16T17:31:04;12.80;43.30
16347;DHT22;8283;48.504;13.734;2023-03-16T17:33:50;12.70;43.40
16347;DHT22;8283;48.504;13.734;2023-03-16T17:36:35;12.60;43.50
16347;DHT22;8283;48.504;13.734;2023-03-16T17:39:24;12.50;43.50
16347;DHT22;8283;48.504;13.734;2023-03-16T17:42:17;12.40;43.70
16347;DHT22;8283;48.504;13.734;2023-03-16T17:45:01;12.30;43.90
16347;DHT22;8283;48.504;13.734;2023-03-16T17:47:50;12.20;43.70
16347;DHT22;8283;48.504;13.734;2023-03-16T17:50:35;12.10;43.90
16347;DHT22;8283;48.504;13.734;2023-03-16T17:53:20;11.90;43.90
16347;DHT22;8283;48.504;13.734;2023-03-16T17:56:19;11.80;44.00
16347;DHT22;8283;48.504;13.734;2023-03-16T17:59:14;11.70;44.60
16347;DHT22;8283;48.504;13.734;2023-03-16T18:01:59;11.60;44.20
16347;DHT22;8283;48.504;13.734;2023-03-16T18:04:44;11.50;44.20
16347;DHT22;8283;48.504;13.734;2023-03-16T18:07:29;11.40;44.30
16347;DHT22;8283;48.504;13.734;2023-03-16T18:10:21;11.30;44.40
16347;DHT22;8283;48.504;13.734;2023-03-16T18:13:18;11.30;44.60
16347;DHT22;8283;48.504;13.734;2023-03-16T18:16:05;11.20;44.70
16347;DHT22;8283;48.504;13.734;2023-03-16T18:18:50;11.10;44.60
16347;DHT22;8283;48.504;13.734;2023-03-16T18:21:38;11.00;44.70
16347;DHT22;8283;48.504;13.734;2023-03-16T18:24:22;10.90;44.80
16347;DHT22;8283;48.504;13.734;2023-03-16T18:27:09;10.80;44.80
16347;DHT22;8283;48.504;13.734;2023-03-16T18:29:55;10.70;44.90
16347;DHT22;8283;48.504;13.734;2023-03-16T18:32:39;10.60;44.90
16347;DHT22;8283;48.504;13.734;2023-03-16T18:35:24;10.60;45.00
16347;DHT22;8283;48.504;13.734;2023-03-16T18:38:21;10.50;45.10
16347;DHT22;8283;48.504;13.734;2023-03-16T18:41:20;10.40;45.50
16347;DHT22;8283;48.504;13.734;2023-03-16T18:44:17;10.40;45.60
16347;DHT22;8283;48.504;13.734;2023-03-16T18:47:02;10.30;45.80
16347;DHT22;8283;48.504;13.734;2023-03-16T18:49:47;10.20;45.40
16347;DHT22;8283;48.504;13.734;2023-03-16T18:52:34;10.10;45.40
16347;DHT22;8283;48.504;13.734;2023-03-16T18:55:23;10.00;45.50
16347;DHT22;8283;48.504;13.734;2023-03-16T18:58:16;10.00;45.70
16347;DHT22;8283;48.504;13.734;2023-03-16T19:01:01;9.90;45.90
16347;DHT22;8283;48.504;13.734;2023-03-16T19:03:46;9.80;45.70